Brewster, Kansas
Current Conditions -  °F | °C
As of 7:53 AM on Sunday 23 Nov 2014 (Local Time) from KGLD Reporting Station
Overcast Overcast  
Wind Chill: 33°   Ceiling: 6500
Heat Index: 42°   Visibility: 10mi
Dew Point: 17°   Wind: 23mph
Humidity: 37%   Direction: 350°N
Pressure: 29.65"   Gusts: 33mph
Location:  39.37°N, 101.38°W
Report Text: KGLD 231353Z AUTO 35020G29KT 10SM OVC065 06/M08 A2965 RMK AO2 PK WND 34030/1321 SLP038 T00561083
Loading
Personal Weather Stations






























Interactive Weather Map New forecast layout! Learn more

10-Day Weather Forecast

Advertisements
Track Severe Weather on mobile